createdAt,value
2022-12-16T00:03:59.449Z,430.13
2022-12-16T00:09:02.120Z,433.97
2022-12-16T00:14:04.701Z,372.03
2022-12-16T00:19:07.131Z,411.30
2022-12-16T00:24:09.425Z,787.97
2022-12-16T00:29:12.205Z,486.33
2022-12-16T00:34:15.513Z,771.37
2022-12-16T00:39:17.897Z,564.47
2022-12-16T00:44:20.135Z,362.80
2022-12-16T00:49:22.373Z,449.57
2022-12-16T00:54:24.603Z,559.70
2022-12-16T00:59:26.834Z,353.57
2022-12-16T01:04:29.433Z,273.03
2022-12-16T01:09:31.781Z,259.50
2022-12-16T01:14:34.112Z,265.00
2022-12-16T01:19:36.352Z,256.80
2022-12-16T01:24:38.590Z,221.70
2022-12-16T01:29:41.622Z,164.27
2022-12-16T01:34:47.332Z,149.97
2022-12-16T01:39:53.275Z,128.23
2022-12-16T01:44:56.325Z,112.83
2022-12-16T01:50:14.886Z,116.27
2022-12-16T01:55:24.092Z,105.90
2022-12-16T02:00:26.505Z,100.37
2022-12-16T02:05:29.908Z,112.83
2022-12-16T02:10:44.186Z,118.93
2022-12-16T02:16:01.946Z,131.60
2022-12-16T02:21:47.140Z,118.83
2022-12-16T02:27:20.537Z,106.50
2022-12-16T02:32:34.761Z,104.30
2022-12-16T02:37:42.907Z,106.93
2022-12-16T02:42:49.949Z,122.20
2022-12-16T02:47:54.500Z,113.77
2022-12-16T02:52:58.706Z,114.50
2022-12-16T02:58:19.723Z,117.37
2022-12-16T03:03:31.343Z,123.23
2022-12-16T03:08:39.411Z,113.67
2022-12-16T03:13:46.360Z,118.50
2022-12-16T03:18:54.801Z,116.50
2022-12-16T03:24:07.207Z,109.90
2022-12-16T03:29:21.282Z,114.07
2022-12-16T03:34:35.091Z,119.03
2022-12-16T03:39:43.755Z,118.43
2022-12-16T03:44:47.807Z,116.10
2022-12-16T03:49:50.054Z,114.70
2022-12-16T03:54:52.284Z,116.47
2022-12-16T03:59:54.504Z,112.93
2022-12-16T04:04:56.785Z,118.67
2022-12-16T04:09:59.290Z,121.13
2022-12-16T04:15:39.668Z,115.47
2022-12-16T04:21:11.280Z,109.00
2022-12-16T04:26:13.744Z,132.57
2022-12-16T04:31:16.049Z,118.07
2022-12-16T04:36:37.081Z,104.70
2022-12-16T04:41:58.177Z,123.77
2022-12-16T04:47:19.062Z,115.80
2022-12-16T04:52:40.340Z,117.63
2022-12-16T04:58:10.522Z,109.17
2022-12-16T05:03:32.010Z,110.23
2022-12-16T05:08:53.252Z,108.20
2022-12-16T05:14:14.928Z,105.27
2022-12-16T05:19:36.153Z,105.53
2022-12-16T05:24:57.346Z,111.00
2022-12-16T05:30:19.844Z,104.70
2022-12-16T05:35:41.088Z,103.00
2022-12-16T05:41:01.906Z,108.03
2022-12-16T05:46:22.769Z,112.27
2022-12-16T05:51:43.773Z,105.93
2022-12-16T05:57:04.692Z,100.87
2022-12-16T06:02:25.572Z,105.47
2022-12-16T06:07:46.499Z,110.30
2022-12-16T06:13:07.304Z,96.97
2022-12-16T06:18:28.740Z,101.07
2022-12-16T06:23:50.009Z,103.33
2022-12-16T06:29:10.988Z,105.07
2022-12-16T06:34:32.037Z,94.30
2022-12-16T06:39:53.350Z,99.03
2022-12-16T06:45:14.518Z,100.33
2022-12-16T06:50:35.426Z,97.27
2022-12-16T06:55:56.476Z,102.67
2022-12-16T07:01:17.580Z,95.33
2022-12-16T07:06:38.443Z,104.63
2022-12-16T07:11:59.583Z,102.17
2022-12-16T07:17:20.689Z,99.83
2022-12-16T07:22:42.154Z,102.03
2022-12-16T07:28:09.411Z,101.30
2022-12-16T07:33:35.226Z,97.70
2022-12-16T07:38:56.518Z,99.30
2022-12-16T07:44:17.647Z,92.17
2022-12-16T07:49:38.575Z,95.63
2022-12-16T07:55:07.192Z,92.30
2022-12-16T08:00:37.190Z,96.83
2022-12-16T08:05:57.931Z,90.10
2022-12-16T08:11:18.699Z,89.27
2022-12-16T08:16:39.661Z,100.60
2022-12-16T08:22:00.340Z,92.93
2022-12-16T08:27:22.057Z,99.60
2022-12-16T08:32:43.026Z,103.33
2022-12-16T08:38:07.574Z,103.47
2022-12-16T08:43:33.914Z,107.70
2022-12-16T08:48:55.055Z,100.70
2022-12-16T08:54:16.973Z,100.23
2022-12-16T08:59:38.123Z,96.67
2022-12-16T09:04:59.106Z,98.17
2022-12-16T09:10:20.123Z,99.53
2022-12-16T09:15:41.295Z,97.50
2022-12-16T09:21:02.376Z,105.67
2022-12-16T09:26:23.751Z,101.97
2022-12-16T09:31:47.443Z,101.13
2022-12-16T09:37:08.610Z,100.33
2022-12-16T09:43:20.873Z,104.67
2022-12-16T09:49:07.127Z,96.57
2022-12-16T09:54:33.499Z,98.27
2022-12-16T09:59:59.158Z,94.13
2022-12-16T10:05:19.852Z,93.83
2022-12-16T10:10:55.893Z,102.93
2022-12-16T10:16:49.721Z,99.63
2022-12-16T10:22:32.358Z,90.57
2022-12-16T10:28:07.751Z,97.37
2022-12-16T10:33:33.402Z,95.77
2022-12-16T10:39:02.341Z,99.27
2022-12-16T10:44:31.516Z,95.60
2022-12-16T10:49:54.842Z,107.73
2022-12-16T10:55:54.670Z,98.50
2022-12-16T11:01:17.036Z,98.67
2022-12-16T11:06:59.239Z,97.87
2022-12-16T11:12:36.349Z,106.90
2022-12-16T11:17:57.038Z,100.03
2022-12-16T11:23:42.798Z,100.73
2022-12-16T11:29:03.879Z,99.77
2022-12-16T11:34:24.645Z,99.47
2022-12-16T11:39:50.009Z,100.23
2022-12-16T11:45:15.027Z,114.40
2022-12-16T11:50:37.462Z,99.07
2022-12-16T11:56:06.869Z,105.57
2022-12-16T12:01:46.072Z,104.20
2022-12-16T12:07:44.221Z,97.60
2022-12-16T12:13:20.448Z,107.87
2022-12-16T12:19:06.394Z,99.33
2022-12-16T12:24:40.649Z,104.63
2022-12-16T12:30:23.535Z,103.17
2022-12-16T12:36:15.902Z,99.03
2022-12-16T12:41:47.817Z,97.27
2022-12-16T12:47:18.586Z,96.77
2022-12-16T12:53:09.083Z,100.87
2022-12-16T12:58:32.042Z,111.77
2022-12-16T13:03:56.133Z,101.70
2022-12-16T13:09:18.239Z,98.23
2022-12-16T13:14:51.361Z,104.27
2022-12-16T13:20:14.493Z,104.60
2022-12-16T13:25:54.480Z,98.97
2022-12-16T13:31:25.907Z,94.37
2022-12-16T13:36:54.158Z,92.00
2022-12-16T13:42:19.117Z,90.17
2022-12-16T13:47:58.423Z,86.77
2022-12-16T13:53:21.565Z,91.37
2022-12-16T13:59:06.145Z,95.20
2022-12-16T14:04:29.305Z,84.17
2022-12-16T14:10:01.190Z,93.03
2022-12-16T14:15:32.675Z,87.40
2022-12-16T14:21:01.027Z,85.20
2022-12-16T14:26:22.177Z,85.20
2022-12-16T14:31:52.720Z,91.17
2022-12-16T14:37:17.158Z,100.93
2022-12-16T14:42:44.570Z,100.13
2022-12-16T14:48:05.356Z,98.57
2022-12-16T14:53:33.684Z,91.30
2022-12-16T14:59:14.504Z,98.43
2022-12-16T15:04:39.743Z,101.67
2022-12-16T15:10:06.792Z,109.80
2022-12-16T15:15:34.518Z,110.90
2022-12-16T15:21:03.547Z,112.70
2022-12-16T15:26:25.402Z,110.90
2022-12-16T15:31:51.679Z,116.17
2022-12-16T15:37:12.638Z,129.07
2022-12-16T15:42:48.425Z,119.00
2022-12-16T15:48:09.922Z,110.73
2022-12-16T15:53:35.229Z,119.50
2022-12-16T15:58:56.350Z,109.83
2022-12-16T16:04:18.077Z,129.10
2022-12-16T16:09:46.193Z,116.43
2022-12-16T16:15:07.243Z,120.30
2022-12-16T16:20:33.342Z,114.37
2022-12-16T16:25:57.983Z,122.60
2022-12-16T16:31:21.479Z,123.20
2022-12-16T16:36:42.262Z,126.90
2022-12-16T16:42:03.414Z,121.20
2022-12-16T16:47:33.402Z,119.87
2022-12-16T16:52:54.354Z,141.30
2022-12-16T16:58:15.560Z,128.13
2022-12-16T17:03:38.702Z,125.83
2022-12-16T17:09:00.049Z,129.93
2022-12-16T17:14:21.250Z,145.77
2022-12-16T17:19:42.163Z,131.03
2022-12-16T17:25:03.209Z,126.17
2022-12-16T17:30:31.604Z,126.07
2022-12-16T17:35:52.705Z,133.43
2022-12-16T17:41:13.643Z,127.87
2022-12-16T17:46:34.671Z,128.77
2022-12-16T17:51:55.700Z,128.83
2022-12-16T17:57:16.892Z,126.30
2022-12-16T18:02:40.572Z,129.67
2022-12-16T18:08:01.762Z,126.00
2022-12-16T18:13:22.528Z,128.73
2022-12-16T18:18:46.309Z,123.33
2022-12-16T18:24:07.389Z,125.73
2022-12-16T18:29:28.302Z,123.67
2022-12-16T18:34:49.271Z,126.17
2022-12-16T18:40:10.311Z,126.37
2022-12-16T18:45:31.546Z,125.73
2022-12-16T18:50:52.569Z,128.63
2022-12-16T18:56:22.667Z,125.20
2022-12-16T19:01:43.926Z,125.17
2022-12-16T19:07:04.876Z,126.47
2022-12-16T19:12:26.025Z,112.53
2022-12-16T19:17:46.948Z,119.20
2022-12-16T19:23:07.893Z,111.87
2022-12-16T19:28:33.482Z,105.57
2022-12-16T19:33:54.635Z,116.27
2022-12-16T19:39:17.420Z,113.23
2022-12-16T19:44:38.542Z,115.13
2022-12-16T19:49:59.480Z,112.53
2022-12-16T19:55:20.802Z,111.57
2022-12-16T20:00:41.895Z,111.77
2022-12-16T20:06:03.000Z,110.10
2022-12-16T20:11:27.336Z,112.80
2022-12-16T20:16:48.287Z,104.60
2022-12-16T20:22:12.078Z,106.60
2022-12-16T20:27:37.302Z,100.83
2022-12-16T20:32:58.277Z,119.63
2022-12-16T20:38:19.340Z,100.00
2022-12-16T20:43:40.706Z,97.83
2022-12-16T20:49:01.965Z,96.40
2022-12-16T20:54:30.729Z,92.13
2022-12-16T20:59:52.052Z,94.80
2022-12-16T21:05:12.693Z,87.70
2022-12-16T21:10:33.781Z,85.80
2022-12-16T21:15:56.255Z,84.70
2022-12-16T21:21:17.335Z,84.30
2022-12-16T21:26:38.542Z,92.27
2022-12-16T21:31:59.383Z,82.20
2022-12-16T21:37:20.242Z,87.07
2022-12-16T21:42:44.145Z,90.30
2022-12-16T21:48:05.237Z,94.93
2022-12-16T21:53:26.225Z,91.63
2022-12-16T21:58:47.523Z,91.70
2022-12-16T22:04:08.786Z,87.83
2022-12-16T22:09:30.377Z,96.20
2022-12-16T22:14:51.610Z,88.50
2022-12-16T22:20:12.834Z,92.80
2022-12-16T22:25:33.714Z,97.33
2022-12-16T22:30:56.266Z,90.67
2022-12-16T22:36:22.368Z,85.40
2022-12-16T22:41:43.462Z,95.20
2022-12-16T22:47:04.428Z,85.07
2022-12-16T22:52:25.474Z,82.17
2022-12-16T22:57:47.484Z,90.60
2022-12-16T23:03:08.461Z,95.97
2022-12-16T23:08:30.071Z,103.83
2022-12-16T23:13:51.025Z,93.33
2022-12-16T23:19:11.996Z,94.10
2022-12-16T23:24:32.946Z,108.83
2022-12-16T23:29:53.805Z,102.73
2022-12-16T23:35:17.688Z,93.30
2022-12-16T23:40:38.775Z,109.30
2022-12-16T23:46:02.174Z,87.80
2022-12-16T23:51:23.362Z,122.13
2022-12-16T23:56:44.651Z,101.07
